Time;durP1;ratioP1;P1;durP2;ratioP2;P2;SDS_P1;SDS_P2;PMS_P1;PMS_P2;Temp;Humidity;BMP_temperature;BMP_pressure;BME280_temperature;BME280_humidity;BME280_pressure;Samples;Min_cycle;Max_cycle;Signal;HPM_P1;HPM_P2
2021/01/07 00:00:47;;;;;;;6.82;5.20;;;3.60;82.90;;;2.55;67.61;94206.25;5038806;28;20231;-80
2021/01/07 00:03:14;;;;;;;5.40;4.57;;;3.60;82.80;;;2.59;67.68;94214.50;5018219;28;20196;-80
2021/01/07 00:05:41;;;;;;;6.22;5.15;;;3.60;82.90;;;2.59;67.36;94217.09;5050814;28;20258;-81
2021/01/07 00:08:08;;;;;;;7.22;4.82;;;3.60;82.90;;;2.60;67.63;94223.91;5033521;28;20231;-80
2021/01/07 00:10:34;;;;;;;6.50;4.90;;;3.60;82.90;;;2.55;67.60;94217.44;5050154;28;20243;-79
2021/01/07 00:13:01;;;;;;;6.07;4.72;;;3.70;83.00;;;2.60;67.76;94223.91;5034564;28;20220;-80
2021/01/07 00:15:27;;;;;;;5.57;4.07;;;3.70;83.00;;;2.60;67.55;94222.13;5050187;28;20211;-79
2021/01/07 00:17:54;;;;;;;5.00;4.13;;;3.60;82.90;;;2.62;67.58;94227.94;5050886;28;20246;-81
2021/01/07 00:20:21;;;;;;;6.03;4.65;;;3.60;82.90;;;2.62;67.88;94229.72;5051325;28;20258;-80
2021/01/07 00:22:47;;;;;;;6.22;4.65;;;3.60;82.90;;;2.60;67.63;94231.66;5034150;28;20199;-81
2021/01/07 00:25:14;;;;;;;6.03;4.90;;;3.60;82.90;;;2.61;67.49;94233.28;5032293;28;20220;-80
2021/01/07 00:27:41;;;;;;;5.32;4.68;;;3.60;82.90;;;2.58;67.54;94231.84;5033572;28;20337;-81
2021/01/07 00:30:09;;;;;;;6.55;4.97;;;3.60;82.90;;;2.58;67.24;94234.41;5018661;28;20230;-80
2021/01/07 00:32:36;;;;;;;6.32;4.57;;;3.60;82.90;;;2.61;67.65;94233.28;5034434;28;20587;-81
2021/01/07 00:35:03;;;;;;;5.93;4.50;;;3.60;83.00;;;2.56;67.65;94241.53;5050538;28;20255;-81
2021/01/07 00:37:30;;;;;;;6.57;4.60;;;3.60;83.00;;;2.58;67.69;94237.00;5033551;28;20296;-81
2021/01/07 00:39:57;;;;;;;5.60;4.20;;;3.60;82.90;;;2.62;67.86;94240.09;5034562;28;20216;-81
2021/01/07 00:42:23;;;;;;;5.53;4.20;;;3.60;82.90;;;2.64;67.57;94240.75;5034713;28;20633;-80
2021/01/07 00:44:50;;;;;;;6.03;4.30;;;3.60;83.00;;;2.63;67.72;94231.34;5050837;28;20552;-80
2021/01/07 00:47:18;;;;;;;5.53;4.50;;;3.60;82.90;;;2.63;67.60;94233.94;5017664;28;20211;-80
2021/01/07 00:49:44;;;;;;;6.07;4.60;;;3.60;82.90;;;2.61;67.59;94234.09;5034056;28;20247;-80
2021/01/07 00:52:15;;;;;;;6.20;4.53;;;3.60;82.90;;;2.60;67.90;94237.66;5051616;28;20321;-81
2021/01/07 00:54:43;;;;;;;5.38;4.07;;;3.60;82.90;;;2.58;67.39;94238.81;5051235;28;20303;-80
2021/01/07 00:57:14;;;;;;;6.45;4.50;;;3.60;82.90;;;2.60;67.49;94235.09;5060643;28;20279;-81
2021/01/07 00:59:42;;;;;;;4.35;3.95;;;3.60;82.90;;;2.64;67.77;94238.16;5018116;28;20223;-81
2021/01/07 01:02:09;;;;;;;5.28;3.97;;;3.60;83.80;;;2.65;67.57;94243.16;5034184;28;20198;-80
2021/01/07 01:04:36;;;;;;;5.63;4.18;;;3.60;82.90;;;2.66;67.73;94246.56;5034287;28;20211;-80
2021/01/07 01:07:03;;;;;;;5.70;4.45;;;3.60;83.00;;;2.65;67.68;94248.34;5033487;28;20562;-80
2021/01/07 01:09:30;;;;;;;6.20;4.47;;;3.60;83.00;;;2.62;67.75;94246.06;5050527;28;20318;-79
2021/01/07 01:11:57;;;;;;;4.50;3.85;;;3.60;83.00;;;2.64;67.74;94251.09;5050954;28;20192;-80
2021/01/07 01:14:24;;;;;;;5.78;4.47;;;3.60;83.00;;;2.65;67.57;94258.72;5050426;28;20226;-80
2021/01/07 01:16:51;;;;;;;5.20;4.15;;;3.60;82.90;;;2.65;67.29;94257.88;5049999;28;20227;-80
2021/01/07 01:19:20;;;;;;;5.75;4.10;;;3.70;83.80;;;2.64;67.64;94253.69;5050393;28;20219;-80
2021/01/07 01:21:51;;;;;;;5.30;4.57;;;3.70;83.00;;;2.61;67.76;94259.97;5014252;28;20204;-80
2021/01/07 01:24:20;;;;;;;5.60;4.32;;;3.60;83.00;;;2.60;68.01;94262.72;5014665;28;20316;-81
2021/01/07 01:26:55;;;;;;;5.57;4.68;;;3.60;82.90;;;2.58;67.49;94259.50;5024303;28;20696;-80
2021/01/07 01:29:22;;;;;;;6.97;4.78;;;3.80;83.10;;;2.56;67.68;94262.22;5032495;28;20227;-80
2021/01/07 01:31:49;;;;;;;6.28;4.40;;;3.60;82.90;;;2.54;67.75;94259.81;5033550;28;20200;-80
2021/01/07 01:34:21;;;;;;;6.20;4.63;;;3.60;82.90;;;2.57;67.77;94261.28;5066106;28;20208;-80
2021/01/07 01:36:51;;;;;;;6.88;4.95;;;3.60;83.00;;;2.56;67.72;94265.66;5017421;28;20203;-79
2021/01/07 01:39:18;;;;;;;7.95;4.75;;;3.60;83.00;;;2.54;68.01;94265.00;5033944;28;20216;-80
2021/01/07 01:41:47;;;;;;;5.40;4.55;;;3.60;83.00;;;2.54;67.91;94264.19;5049963;28;20270;-80
2021/01/07 01:44:17;;;;;;;5.80;4.82;;;3.60;83.00;;;2.52;67.90;94266.91;5049951;28;20196;-80
2021/01/07 01:46:43;;;;;;;6.22;4.43;;;3.60;83.00;;;2.52;67.68;94272.09;5033932;28;20242;-81
2021/01/07 01:49:14;;;;;;;6.75;5.15;;;3.60;83.00;;;2.50;67.99;94274.06;5050425;28;20760;-80
2021/01/07 01:51:42;;;;;;;4.63;3.85;;;3.60;83.10;;;2.51;67.88;94269.69;5033813;28;20573;-80
2021/01/07 01:54:09;;;;;;;5.95;4.00;;;3.60;83.10;;;2.53;68.15;94265.16;5050112;28;20196;-80
2021/01/07 01:56:37;;;;;;;6.03;3.92;;;3.60;83.10;;;2.54;67.94;94269.38;5050452;28;20249;-80
2021/01/07 01:59:05;;;;;;;5.38;3.90;;;3.60;83.10;;;2.55;67.69;94273.56;5034436;28;20561;-80
2021/01/07 02:01:32;;;;;;;4.82;3.75;;;3.70;83.10;;;2.55;68.09;94279.56;5019787;28;20231;-80
2021/01/07 02:03:59;;;;;;;4.82;3.83;;;3.60;83.10;;;2.53;67.80;94270.34;5053684;28;20283;-80
2021/01/07 02:06:28;;;;;;;4.95;3.83;;;3.60;83.10;;;2.55;68.10;94268.38;5053146;28;20286;-81
2021/01/07 02:08:56;;;;;;;4.45;4.00;;;3.60;83.10;;;2.55;67.94;94266.63;5053036;28;20265;-81
2021/01/07 02:11:23;;;;;;;3.92;3.30;;;3.60;83.10;;;2.57;67.85;94274.22;5036757;28;20203;-80
2021/01/07 02:13:50;;;;;;;4.97;3.60;;;3.60;83.10;;;2.55;67.74;94270.97;5053709;28;20232;-80
2021/01/07 02:16:24;;;;;;;4.95;3.60;;;3.60;83.10;;;2.55;67.86;94271.78;5053681;28;20208;-80
2021/01/07 02:18:54;;;;;;;5.55;4.30;;;3.60;83.10;;;2.53;67.94;94275.50;5036569;28;20202;-80
2021/01/07 02:21:20;;;;;;;5.78;4.10;;;3.60;83.10;;;2.53;68.38;94268.53;5053069;28;20227;-80
2021/01/07 02:23:50;;;;;;;7.20;4.80;;;3.60;83.10;;;2.50;67.84;94271.47;5041353;28;20646;-81
2021/01/07 02:26:19;;;;;;;5.38;4.47;;;3.60;83.10;;;2.50;67.92;94278.41;5000945;28;20603;-80
2021/01/07 02:28:46;;;;;;;6.38;4.70;;;3.60;83.00;;;2.46;67.81;94269.34;5052262;28;20721;-81
2021/01/07 02:31:14;;;;;;;6.32;4.40;;;3.60;83.00;;;2.43;67.60;94275.66;5053333;28;20239;-80
2021/01/07 02:33:42;;;;;;;5.05;4.03;;;3.50;82.90;;;2.37;67.65;94273.69;5036706;28;20670;-81
2021/01/07 02:36:10;;;;;;;5.15;4.15;;;3.50;82.90;;;2.40;67.65;94284.53;5053552;28;20223;-80
2021/01/07 02:38:38;;;;;;;6.25;4.32;;;3.50;82.90;;;2.39;67.68;94279.50;5051973;28;20216;-81
2021/01/07 02:41:08;;;;;;;6.00;4.53;;;3.50;82.90;;;2.36;67.78;94275.44;5036533;28;20307;-80
2021/01/07 02:43:38;;;;;;;5.22;4.20;;;3.50;82.90;;;2.37;67.75;94286.63;5052967;28;20692;-81
2021/01/07 02:46:05;;;;;;;6.10;4.63;;;3.40;82.80;;;2.36;67.94;94293.56;5052640;28;20219;-80
2021/01/07 02:48:31;;;;;;;5.95;4.32;;;3.40;82.80;;;2.35;67.91;94291.16;5052372;28;20804;-80
2021/01/07 02:50:58;;;;;;;5.70;4.43;;;3.40;82.90;;;2.34;67.98;94290.31;5035832;28;20311;-81
2021/01/07 02:53:25;;;;;;;5.97;4.28;;;3.40;82.90;;;2.34;67.89;94287.72;5019209;28;21444;-81
2021/01/07 02:55:52;;;;;;;7.30;4.68;;;3.40;82.80;;;2.28;67.83;94287.56;5036791;28;20227;-80
2021/01/07 02:58:37;;;;;;;6.13;4.13;;;3.40;82.90;;;2.28;67.64;94284.97;5033027;28;20754;-81
2021/01/07 03:01:03;;;;;;;4.80;4.20;;;3.40;82.80;;;2.31;67.89;94289.84;5051306;28;20219;-81
2021/01/07 03:03:31;;;;;;;5.72;4.47;;;3.40;83.70;;;2.32;67.56;94291.44;5052689;28;20204;-81
2021/01/07 03:05:57;;;;;;;5.95;4.40;;;3.40;82.80;;;2.32;67.43;94294.84;5019821;28;20236;-81
2021/01/07 03:08:24;;;;;;;5.47;4.43;;;3.40;82.90;;;2.29;67.69;94286.59;5051529;28;20231;-81
2021/01/07 03:10:51;;;;;;;5.35;4.22;;;3.30;82.90;;;2.33;67.82;94298.25;5052027;28;20697;-80
2021/01/07 03:13:17;;;;;;;4.50;3.70;;;3.40;82.90;;;2.32;67.97;94294.03;5035809;28;20289;-81
2021/01/07 03:15:44;;;;;;;5.35;4.30;;;3.30;82.80;;;2.32;67.84;94294.03;5035265;28;20216;-80
2021/01/07 03:18:11;;;;;;;5.50;4.38;;;3.30;82.80;;;2.29;67.78;94291.78;5050648;28;20208;-81
2021/01/07 03:20:38;;;;;;;4.80;3.60;;;3.30;82.80;;;2.30;67.72;94291.59;5051854;28;20228;-81
2021/01/07 03:23:05;;;;;;;4.13;3.40;;;3.30;82.90;;;2.31;67.64;94295.03;5051600;28;20246;-80
2021/01/07 03:25:31;;;;;;;5.15;3.97;;;3.30;82.90;;;2.31;67.69;94297.59;5035645;28;20214;-80
2021/01/07 03:27:58;;;;;;;3.97;3.47;;;3.30;82.80;;;2.30;67.66;94296.78;5051753;28;20227;-80
2021/01/07 03:30:25;;;;;;;4.47;3.70;;;3.30;82.90;;;2.31;67.71;94301.00;5035215;28;20216;-80
2021/01/07 03:32:51;;;;;;;4.13;3.50;;;3.30;82.90;;;2.30;68.08;94309.72;5019124;28;20249;-80
2021/01/07 03:35:18;;;;;;;5.28;3.78;;;3.30;82.90;;;2.23;67.94;94296.59;5035438;28;20831;-80
2021/01/07 03:37:45;;;;;;;5.60;3.78;;;3.30;82.90;;;2.29;67.73;94305.50;5035259;28;20200;-80
2021/01/07 03:40:12;;;;;;;5.18;3.75;;;3.30;82.80;;;2.26;67.63;94297.25;5018473;28;20772;-81
2021/01/07 03:42:39;;;;;;;3.85;3.20;;;3.30;82.80;;;2.26;67.87;94305.84;5051941;28;20208;-81
2021/01/07 03:45:06;;;;;;;4.35;3.50;;;3.30;82.80;;;2.23;67.70;94306.97;5018108;28;20266;-80
2021/01/07 03:47:34;;;;;;;4.25;3.28;;;3.30;82.80;;;2.24;67.70;94308.56;5035156;28;20200;-81
2021/01/07 03:50:01;;;;;;;4.15;3.22;;;3.30;82.80;;;2.21;67.76;94308.88;5034809;28;20232;-81
2021/01/07 03:52:28;;;;;;;4.25;3.45;;;3.30;82.80;;;2.16;67.73;94303.38;5052298;28;20191;-80
2021/01/07 03:54:56;;;;;;;4.57;3.53;;;3.30;82.80;;;2.21;67.73;94308.06;5034936;28;20212;-81
2021/01/07 03:57:22;;;;;;;4.78;4.03;;;3.30;82.80;;;2.19;67.91;94312.59;5044817;28;20196;-80
2021/01/07 03:59:49;;;;;;;4.28;3.60;;;3.30;82.80;;;2.16;67.74;94307.72;5042741;28;20637;-81
2021/01/07 04:02:16;;;;;;;3.97;3.40;;;3.30;82.90;;;2.11;67.73;94315.13;5033683;28;20291;-80
2021/01/07 04:04:43;;;;;;;4.20;3.13;;;3.30;82.80;;;2.13;67.79;94328.72;5032471;28;20293;-81
2021/01/07 04:07:10;;;;;;;4.32;3.42;;;3.20;82.80;;;2.14;67.64;94317.44;5031353;28;20196;-80
2021/01/07 04:09:36;;;;;;;3.20;2.90;;;3.20;82.70;;;2.13;67.73;94320.97;5022257;28;20224;-80
2021/01/07 04:12:04;;;;;;;4.15;3.40;;;3.20;82.80;;;2.10;67.72;94310.91;5065568;28;20204;-81
2021/01/07 04:14:32;;;;;;;4.90;3.05;;;3.20;82.80;;;2.11;67.72;94315.13;5031007;28;20646;-80
2021/01/07 04:16:59;;;;;;;4.00;3.20;;;3.20;82.80;;;2.11;67.67;94315.13;5042921;28;20229;-80
2021/01/07 04:19:26;;;;;;;4.32;2.85;;;3.20;82.80;;;2.13;67.80;94315.81;5025623;28;20302;-80
2021/01/07 04:21:53;;;;;;;3.30;3.00;;;3.20;82.80;;;2.08;67.93;94314.47;5032154;28;20283;-80
2021/01/07 04:24:20;;;;;;;4.18;3.40;;;3.20;82.80;;;2.11;67.93;94310.75;5015172;28;20254;-80
2021/01/07 04:26:47;;;;;;;3.55;3.00;;;3.20;82.80;;;2.12;67.99;94321.94;5048679;28;20286;-80
2021/01/07 04:29:14;;;;;;;4.03;3.00;;;3.20;82.80;;;2.12;67.94;94314.16;5023085;28;20232;-79
2021/01/07 04:31:41;;;;;;;4.07;3.00;;;3.20;82.80;;;2.12;67.54;94319.34;5031557;28;20228;-80
2021/01/07 04:34:07;;;;;;;3.67;2.75;;;3.20;82.80;;;2.13;67.61;94320.97;5010419;28;20202;-80
2021/01/07 04:36:35;;;;;;;3.35;3.00;;;3.20;82.80;;;2.11;67.73;94328.06;5017330;28;20207;-80
2021/01/07 04:39:04;;;;;;;3.63;3.10;;;3.20;82.80;;;2.06;67.73;94324.19;5052067;28;20188;-80
2021/01/07 04:41:31;;;;;;;3.97;3.00;;;3.20;82.80;;;2.07;67.77;94327.56;5049544;28;20523;-80
2021/01/07 04:43:59;;;;;;;3.50;3.20;;;3.10;82.70;;;2.05;67.43;94334.66;5049666;28;20561;-81
2021/01/07 04:46:26;;;;;;;4.32;2.78;;;3.10;82.70;;;2.04;67.82;94331.28;5046884;28;20208;-81
2021/01/07 04:48:54;;;;;;;3.08;2.67;;;3.10;82.60;;;2.04;67.67;94326.09;5031171;28;20247;-80
2021/01/07 04:51:21;;;;;;;3.30;3.00;;;3.10;82.60;;;2.02;67.71;94328.00;5030583;28;20219;-81
2021/01/07 04:53:49;;;;;;;3.67;3.15;;;3.10;82.70;;;1.98;67.84;94323.31;5048927;28;20274;-80
2021/01/07 04:56:15;;;;;;;4.05;3.33;;;3.10;82.70;;;1.95;67.59;94326.22;5030866;28;20311;-81
2021/01/07 04:58:42;;;;;;;4.35;3.20;;;3.10;83.50;;;1.97;67.72;94332.84;5048921;28;20359;-79
2021/01/07 05:01:09;;;;;;;5.20;4.57;;;3.10;82.70;;;1.99;67.57;94327.50;5047856;28;20220;-81
2021/01/07 05:03:36;;;;;;;17.42;15.63;;;3.10;82.80;;;1.98;67.98;94331.06;5033410;28;20196;-81
2021/01/07 05:06:03;;;;;;;12.65;9.55;;;3.10;82.70;;;2.01;67.80;94338.53;5051214;28;20243;-80
2021/01/07 05:08:30;;;;;;;9.68;6.30;;;3.10;82.70;;;1.99;67.95;94333.50;5050620;28;20701;-81
2021/01/07 05:10:57;;;;;;;5.88;4.50;;;3.10;82.80;;;1.96;67.60;94335.59;5034517;28;20310;-80
2021/01/07 05:13:24;;;;;;;31.10;17.88;;;3.10;82.80;;;2.00;67.67;94339.47;5034382;28;20214;-81
2021/01/07 05:15:51;;;;;;;10.77;7.97;;;3.10;83.40;;;2.01;67.76;94341.13;5050590;28;20216;-81
2021/01/07 05:18:18;;;;;;;46.80;25.50;;;3.10;82.80;;;2.00;67.73;94337.72;5050433;28;20208;-81
2021/01/07 05:20:44;;;;;;;10.23;6.28;;;3.10;82.80;;;2.00;68.14;94342.06;5033300;28;20567;-81
2021/01/07 05:23:11;;;;;;;8.07;6.30;;;3.10;82.90;;;2.00;68.05;94339.47;5017371;28;20662;-81
2021/01/07 05:25:42;;;;;;;4.60;3.95;;;3.10;82.80;;;2.02;67.43;94342.75;5050207;28;20212;-81
2021/01/07 05:28:09;;;;;;;4.57;3.80;;;3.10;82.90;;;2.04;67.86;94340.81;5029370;28;20259;-80
2021/01/07 05:30:36;;;;;;;4.35;3.85;;;3.10;82.80;;;2.00;67.58;94327.38;5034339;28;20212;-80
2021/01/07 05:33:08;;;;;;;9.98;6.55;;;3.10;82.80;;;2.05;67.39;94335.47;5050821;28;20647;-81
2021/01/07 05:35:37;;;;;;;7.95;6.00;;;3.10;82.80;;;2.06;67.57;94336.28;5053168;28;20580;-80
2021/01/07 05:38:06;;;;;;;5.43;4.50;;;3.10;82.80;;;2.03;67.39;94339.19;5036927;28;20291;-81
2021/01/07 05:40:35;;;;;;;5.18;4.00;;;3.10;82.80;;;2.08;67.72;94349.88;5053103;28;20663;-81
2021/01/07 05:43:10;;;;;;;5.07;3.72;;;3.10;82.70;;;2.06;67.59;94346.63;5070695;28;20211;-81
2021/01/07 05:45:39;;;;;;;3.95;3.55;;;3.10;82.70;;;2.03;67.35;94340.00;5053483;28;20713;-80
2021/01/07 05:48:07;;;;;;;3.70;3.30;;;3.10;82.70;;;2.03;67.24;94337.41;5053514;28;20292;-80
2021/01/07 05:50:40;;;;;;;3.95;3.20;;;3.10;82.70;;;2.02;67.59;94342.75;5037451;28;20244;-81
2021/01/07 05:53:07;;;;;;;4.00;3.20;;;3.10;82.60;;;2.01;67.53;94335.94;5053842;28;20246;-81
2021/01/07 05:55:37;;;;;;;4.07;3.00;;;3.10;82.60;;;2.03;67.39;94349.53;5053423;28;20273;-80
2021/01/07 05:58:04;;;;;;;3.70;3.40;;;3.10;82.70;;;2.00;67.40;94342.91;5037276;28;20248;-80
2021/01/07 06:00:34;;;;;;;3.17;2.88;;;3.10;82.70;;;2.00;67.67;94337.72;5054299;28;20219;-80
2021/01/07 06:03:03;;;;;;;4.50;3.83;;;3.00;82.60;;;2.02;67.29;94347.91;5053820;28;20533;-80
2021/01/07 06:05:30;;;;;;;3.90;3.42;;;3.00;82.60;;;2.00;67.29;94342.91;5037023;28;20732;-81
2021/01/07 06:07:59;;;;;;;2.78;2.47;;;3.10;82.70;;;2.01;67.23;94339.31;5033478;28;20228;-80
2021/01/07 06:10:27;;;;;;;3.90;3.50;;;3.10;82.60;;;2.02;67.06;94345.31;5035571;28;20256;-82
2021/01/07 06:12:54;;;;;;;4.35;3.55;;;3.00;82.60;;;2.01;67.25;94341.13;5068208;28;20204;-80
2021/01/07 06:15:23;;;;;;;6.75;3.58;;;3.00;82.60;;;1.99;67.16;94335.28;5051614;28;20234;-80
2021/01/07 06:17:51;;;;;;;3.40;3.10;;;3.10;82.60;;;1.99;67.37;94335.28;5052737;28;20203;-80
2021/01/07 06:20:20;;;;;;;4.53;3.33;;;3.10;82.60;;;1.92;67.25;94329.91;5037031;28;20240;-80
2021/01/07 06:22:52;;;;;;;4.53;3.40;;;3.10;82.60;;;1.95;67.09;94347.69;5035990;28;20275;-79
2021/01/07 06:25:23;;;;;;;4.10;3.45;;;3.00;82.50;;;1.92;67.52;94337.66;5053008;28;20717;-80
2021/01/07 06:27:53;;;;;;;4.88;3.78;;;3.00;82.50;;;1.89;67.43;94338.78;5051986;28;20186;-80
2021/01/07 06:30:19;;;;;;;4.47;3.90;;;3.00;82.40;;;1.88;67.27;94329.41;5050904;28;20223;-80
2021/01/07 06:33:01;;;;;;;5.63;4.03;;;3.00;82.40;;;1.83;67.27;94328.22;5067154;28;20196;-81
2021/01/07 06:35:41;;;;;;;6.25;4.35;;;3.00;82.50;;;1.82;67.33;94332.59;5051008;28;20246;-80
2021/01/07 06:38:13;;;;;;;5.20;4.13;;;3.00;82.40;;;1.81;67.33;94336.16;5050604;28;20214;-80
2021/01/07 06:40:42;;;;;;;5.25;3.97;;;2.90;82.30;;;1.74;67.33;94325.59;5051221;28;20216;-79
2021/01/07 06:43:18;;;;;;;6.93;4.35;;;2.90;82.30;;;1.74;67.08;94332.53;5051758;28;20196;-80
2021/01/07 06:45:56;;;;;;;6.35;4.32;;;2.90;82.30;;;1.68;67.03;94328.78;5036172;28;20585;-80
2021/01/07 06:48:34;;;;;;;5.60;4.57;;;2.90;82.30;;;1.71;67.27;94338.84;5052028;28;20220;-80
2021/01/07 06:51:03;;;;;;;5.15;4.10;;;2.80;82.30;;;1.67;67.27;94329.78;5035422;28;20322;-81
2021/01/07 06:53:36;;;;;;;5.28;4.05;;;2.90;82.30;;;1.69;67.23;94348.50;5057991;28;20200;-80
2021/01/07 06:56:30;;;;;;;4.95;3.72;;;2.80;82.30;;;1.65;67.34;94347.19;5036520;28;20224;-81
2021/01/07 06:58:59;;;;;;;6.53;4.78;;;2.80;82.40;;;1.66;67.49;94351.41;5047308;28;20197;-80
2021/01/07 07:01:28;;;;;;;5.75;4.25;;;2.80;82.40;;;1.66;67.50;94351.41;5034829;28;20725;-79
2021/01/07 07:04:05;;;;;;;4.78;4.25;;;2.70;82.40;;;1.67;67.36;94355.63;5019024;28;20200;-80
2021/01/07 07:06:33;;;;;;;5.63;4.50;;;2.80;82.50;;;1.68;67.51;94353.84;5068798;28;20184;-80
2021/01/07 07:09:16;;;;;;;6.85;5.13;;;2.80;82.50;;;1.66;67.12;94366.91;5039896;28;20224;-80
2021/01/07 07:11:55;;;;;;;6.30;5.18;;;2.70;82.50;;;1.66;67.39;94356.56;5035766;28;20257;-80
2021/01/07 07:14:23;;;;;;;7.50;4.85;;;2.70;82.40;;;1.67;67.75;94359.97;5035425;28;20622;-80
2021/01/07 07:16:51;;;;;;;5.85;4.88;;;2.70;82.40;;;1.68;67.28;94364.97;5035812;28;20192;-80
2021/01/07 07:19:27;;;;;;;8.13;5.07;;;2.70;82.40;;;1.66;67.12;94364.34;5052302;28;20593;-80
2021/01/07 07:22:00;;;;;;;6.35;4.75;;;2.70;82.40;;;1.67;67.29;94372.88;5034658;28;20208;-80
2021/01/07 07:24:36;;;;;;;6.55;5.78;;;2.70;82.40;;;1.68;67.26;94380.47;5052644;28;20279;-80
2021/01/07 07:27:09;;;;;;;5.75;4.47;;;2.70;82.40;;;1.71;67.48;94387.13;5051282;28;20715;-80
2021/01/07 07:29:45;;;;;;;6.05;4.70;;;2.70;82.50;;;1.73;67.33;94385.22;5051991;28;20223;-80
2021/01/07 07:32:25;;;;;;;5.45;4.13;;;2.70;82.50;;;1.72;67.43;94384.41;5035844;28;20715;-81
2021/01/07 07:34:55;;;;;;;6.35;4.53;;;2.80;82.60;;;1.76;67.37;94392.69;5068421;28;20639;-79
2021/01/07 07:37:27;;;;;;;5.00;4.32;;;2.80;82.60;;;1.80;67.51;94395.78;5018623;28;20200;-80
2021/01/07 07:40:03;;;;;;;5.63;4.60;;;2.80;82.70;;;1.83;67.57;94398.88;5034216;28;20312;-79
2021/01/07 07:42:31;;;;;;;6.25;4.70;;;2.80;82.70;;;1.86;67.62;94395.16;5051393;28;20195;-80
2021/01/07 07:44:58;;;;;;;6.38;5.22;;;2.90;82.80;;;1.89;67.20;94403.44;5030750;28;20213;-81
2021/01/07 07:47:25;;;;;;;6.35;5.00;;;2.80;82.80;;;1.95;67.37;94402.00;5042994;28;20700;-80
2021/01/07 07:49:58;;;;;;;9.32;5.90;;;2.90;82.80;;;1.99;67.58;94400.75;5045799;28;20318;-80
2021/01/07 07:52:25;;;;;;;9.70;6.20;;;2.90;82.90;;;2.04;67.86;94406.28;5031955;28;20659;-81
2021/01/07 07:55:18;;;;;;;10.07;7.22;;;2.90;82.90;;;2.09;67.30;94418.78;5032140;28;20204;-80
2021/01/07 07:57:46;;;;;;;10.02;6.88;;;3.00;82.90;;;2.13;67.55;94417.50;5023802;28;20196;-80
2021/01/07 08:00:17;;;;;;;9.55;6.82;;;3.00;83.00;;;2.18;67.25;94415.25;5051212;28;20227;-80
2021/01/07 08:02:45;;;;;;;10.82;6.53;;;3.10;83.00;;;2.21;67.36;94417.56;5050512;28;20203;-80
2021/01/07 08:05:29;;;;;;;9.02;6.03;;;3.10;83.00;;;2.25;67.38;94425.81;5051312;28;20227;-79
2021/01/07 08:07:57;;;;;;;8.63;5.85;;;3.10;82.80;;;2.31;67.52;94427.78;5050689;28;20203;-80
2021/01/07 08:10:26;;;;;;;9.50;6.00;;;3.20;83.00;;;2.34;67.00;94424.09;5033775;28;20697;-79
2021/01/07 08:12:57;;;;;;;9.60;6.25;;;3.20;83.00;;;2.40;67.51;94416.53;5034762;28;20224;-81
2021/01/07 08:15:31;;;;;;;9.10;5.90;;;3.20;83.00;;;2.39;67.18;94412.31;5051337;28;20273;-81
2021/01/07 08:18:18;;;;;;;9.27;5.97;;;3.30;83.10;;;2.51;67.24;94418.03;5031218;28;20196;-80
2021/01/07 08:20:47;;;;;;;9.32;5.95;;;3.30;83.00;;;2.57;67.60;94424.38;5049985;28;20704;-80
2021/01/07 08:23:16;;;;;;;8.23;5.70;;;3.40;83.20;;;2.59;67.38;94417.28;5051006;28;20278;-80
2021/01/07 08:25:51;;;;;;;8.73;6.32;;;3.40;83.30;;;2.70;67.13;94419.56;5034941;28;20226;-81
2021/01/07 08:28:37;;;;;;;9.73;6.13;;;3.50;83.30;;;2.77;67.46;94424.97;5034641;28;20230;-80
2021/01/07 08:31:07;;;;;;;8.73;6.38;;;3.50;83.40;;;2.81;67.11;94421.06;5048950;28;20207;-80
2021/01/07 08:33:35;;;;;;;7.70;6.07;;;3.60;83.20;;;2.85;66.91;94427.56;5023688;28;20227;-80
2021/01/07 08:36:05;;;;;;;9.30;6.70;;;3.70;83.10;;;2.90;67.14;94421.13;5051092;28;20228;-80
2021/01/07 08:38:37;;;;;;;9.07;6.78;;;3.70;83.10;;;2.94;66.79;94407.69;5033927;28;20200;-81
2021/01/07 08:41:12;;;;;;;9.82;6.43;;;3.70;83.00;;;3.04;67.02;94425.69;5032812;28;20240;-80
2021/01/07 08:43:41;;;;;;;10.35;7.22;;;3.80;82.90;;;3.06;66.79;94418.56;5067430;28;20234;-80
2021/01/07 08:46:15;;;;;;;10.80;7.47;;;3.80;83.10;;;3.09;66.65;94409.66;5034001;28;20240;-80
2021/01/07 08:48:44;;;;;;;8.18;6.90;;;3.90;83.20;;;3.23;67.05;94416.03;5050296;28;20641;-80
2021/01/07 08:51:22;;;;;;;8.75;6.65;;;3.90;83.20;;;3.32;66.54;94415.06;5034417;28;20231;-81
2021/01/07 08:53:56;;;;;;;8.20;6.43;;;4.00;83.10;;;3.38;66.42;94408.44;5054121;28;20617;-80
2021/01/07 08:56:30;;;;;;;9.13;6.35;;;4.00;82.90;;;3.45;66.37;94417.19;5049387;28;20222;-80
2021/01/07 08:59:22;;;;;;;7.97;6.18;;;4.10;82.80;;;3.43;66.39;94419.13;5017270;28;20249;-81
2021/01/07 09:02:17;;;;;;;10.40;7.68;;;4.20;82.70;;;3.46;65.95;94426.59;5066701;28;20227;-79
2021/01/07 09:04:44;;;;;;;10.23;7.40;;;4.20;82.60;;;3.51;66.38;94435.50;5045010;28;20580;-80
2021/01/07 09:07:14;;;;;;;9.88;7.75;;;4.20;82.80;;;3.62;66.69;94425.81;5033877;28;20203;-81
2021/01/07 09:09:45;;;;;;;10.98;8.25;;;4.30;82.90;;;3.68;66.37;94428.56;5049579;28;20232;-80
2021/01/07 09:12:24;;;;;;;10.88;9.05;;;4.30;83.10;;;3.75;66.35;94427.91;5054811;28;20254;-80
2021/01/07 09:15:10;;;;;;;8.68;6.93;;;4.40;82.80;;;3.83;66.36;94430.50;5020410;28;20228;-81
2021/01/07 09:17:41;;;;;;;9.80;7.75;;;4.40;82.80;;;3.87;66.41;94431.81;5037718;28;20245;-80
2021/01/07 09:20:14;;;;;;;9.27;7.53;;;4.50;83.00;;;3.95;66.59;94434.41;5021895;28;20270;-81
2021/01/07 09:22:42;;;;;;;14.93;11.43;;;4.50;83.00;;;4.03;66.35;94436.19;5070970;28;20192;-80
2021/01/07 09:25:17;;;;;;;9.23;7.55;;;4.60;83.20;;;4.03;65.95;94438.78;5053543;28;20587;-80
2021/01/07 09:27:46;;;;;;;9.82;7.78;;;4.70;82.90;;;4.03;66.12;94445.75;5054350;28;20191;-81
2021/01/07 09:30:14;;;;;;;13.43;9.13;;;4.70;82.80;;;4.01;66.05;94441.53;5036689;28;20227;-80
2021/01/07 09:32:42;;;;;;;13.15;9.00;;;4.70;82.70;;;3.98;66.33;94438.47;5036894;28;20235;-80
2021/01/07 09:35:12;;;;;;;11.95;8.90;;;4.80;82.70;;;4.02;65.96;94444.94;5037633;28;20228;-80
2021/01/07 09:37:58;;;;;;;9.40;6.90;;;4.80;82.60;;;4.00;66.21;94452.06;5054058;28;20286;-81
2021/01/07 09:40:26;;;;;;;34.80;20.63;;;4.80;82.50;;;3.97;66.19;94442.84;5037742;28;20270;-80
2021/01/07 09:42:53;;;;;;;22.13;15.27;;;4.80;82.50;;;3.96;66.41;94441.22;5054227;28;20200;-81
2021/01/07 09:45:20;;;;;;;38.90;25.90;;;4.80;82.50;;;3.96;66.30;94443.00;5053485;28;20220;-80
2021/01/07 09:47:47;;;;;;;19.80;14.00;;;4.80;82.40;;;3.92;66.03;94445.13;5016885;28;20201;-81
2021/01/07 09:50:14;;;;;;;16.33;11.55;;;4.80;82.40;;;3.92;66.48;94439.94;5033862;28;20232;-80
2021/01/07 09:52:41;;;;;;;10.73;7.88;;;4.80;82.30;;;3.87;66.10;94443.97;5029915;28;20257;-79
2021/01/07 09:55:09;;;;;;;9.52;6.88;;;4.80;82.30;;;3.88;66.49;94445.59;5021477;28;20216;-80
2021/01/07 09:57:37;;;;;;;9.02;7.13;;;4.80;82.40;;;3.89;66.68;94436.84;5053193;28;20613;-79
2021/01/07 10:00:06;;;;;;;15.77;11.32;;;4.80;82.50;;;3.88;66.52;94433.41;5053829;28;20212;-79
2021/01/07 10:02:33;;;;;;;9.88;8.25;;;4.70;82.20;;;3.91;66.66;94446.09;5019795;28;20200;-80
2021/01/07 10:05:00;;;;;;;12.90;8.57;;;4.80;82.50;;;3.90;67.15;94443.66;5036446;28;20722;-80
2021/01/07 10:07:27;;;;;;;9.27;7.32;;;4.80;82.50;;;3.91;66.71;94438.28;5037328;28;20203;-80
2021/01/07 10:09:53;;;;;;;9.23;7.43;;;4.80;82.60;;;3.93;67.29;94431.16;5053106;28;20314;-80
2021/01/07 10:12:20;;;;;;;8.07;6.43;;;4.80;82.70;;;3.96;66.83;94430.84;5037255;28;20242;-80
2021/01/07 10:14:47;;;;;;;9.02;6.40;;;4.80;82.80;;;4.05;66.90;94431.63;5053777;28;20247;-79
2021/01/07 10:17:14;;;;;;;8.40;6.70;;;4.90;82.90;;;4.04;66.56;94435.22;5035957;28;20208;-80
2021/01/07 10:19:41;;;;;;;8.82;6.85;;;4.90;82.80;;;4.08;66.57;94444.28;5036194;28;20212;-80
2021/01/07 10:22:11;;;;;;;9.15;6.25;;;4.90;82.70;;;4.09;66.94;94442.50;5036826;28;20295;-79
2021/01/07 10:24:48;;;;;;;8.40;6.15;;;4.90;82.60;;;4.10;66.82;94444.13;5036999;28;20231;-78
2021/01/07 10:27:18;;;;;;;7.20;6.18;;;4.90;82.60;;;4.10;67.04;94431.97;5036239;28;20662;-79
2021/01/07 10:29:46;;;;;;;8.25;6.10;;;5.00;82.80;;;4.14;67.24;94445.44;5053204;28;20232;-78
2021/01/07 10:32:17;;;;;;;7.43;6.38;;;5.00;82.90;;;4.17;66.89;94437.31;5051996;28;20217;-78
2021/01/07 10:34:49;;;;;;;8.68;6.65;;;5.00;82.70;;;4.17;66.68;94450.28;5034934;28;20671;-78
2021/01/07 10:37:22;;;;;;;7.30;6.57;;;5.00;82.50;;;4.13;66.15;94451.59;5036516;28;20192;-78
2021/01/07 10:39:52;;;;;;;8.27;6.72;;;5.10;82.50;;;4.12;66.71;94445.56;5052897;28;20220;-78
2021/01/07 10:42:21;;;;;;;6.68;5.63;;;5.10;82.50;;;4.12;67.20;94448.19;5015625;28;20259;-79